createdAt,value
2018-04-25T00:01:19.986Z,31.88
2018-04-25T00:03:55.579Z,31.81
2018-04-25T00:06:27.401Z,31.76
2018-04-25T00:08:59.223Z,31.72
2018-04-25T00:11:32.235Z,31.66
2018-04-25T00:14:04.542Z,31.56
2018-04-25T00:16:36.267Z,31.50
2018-04-25T00:19:08.270Z,31.48
2018-04-25T00:21:40.437Z,31.43
2018-04-25T00:24:12.487Z,31.32
2018-04-25T00:26:44.481Z,31.27
2018-04-25T00:29:16.277Z,31.21
2018-04-25T00:31:48.333Z,31.19
2018-04-25T00:34:20.276Z,31.18
2018-04-25T00:36:52.375Z,31.13
2018-04-25T00:39:24.447Z,31.08
2018-04-25T00:41:56.309Z,31.06
2018-04-25T00:44:28.364Z,31.01
2018-04-25T00:47:00.256Z,30.96
2018-04-25T00:49:33.552Z,30.89
2018-04-25T00:52:05.038Z,30.85
2018-04-25T00:54:37.592Z,30.79
2018-04-25T00:57:08.482Z,30.73
2018-04-25T00:59:40.266Z,30.67
2018-04-25T01:02:12.488Z,30.65
2018-04-25T01:04:44.437Z,30.59
2018-04-25T01:07:16.436Z,30.53
2018-04-25T01:09:50.995Z,30.46
2018-04-25T01:12:24.867Z,30.41
2018-04-25T01:14:58.480Z,30.38
2018-04-25T01:17:30.313Z,30.33
2018-04-25T01:20:01.935Z,30.27
2018-04-25T01:22:33.849Z,30.22
2018-04-25T01:28:26.478Z,30.01
2018-04-25T01:31:00.254Z,29.97
2018-04-25T01:33:38.569Z,29.97
2018-04-25T01:36:15.085Z,29.90
2018-04-25T01:38:50.385Z,29.81
2018-04-25T01:41:22.271Z,29.77
2018-04-25T01:43:55.519Z,29.74
2018-04-25T01:46:31.480Z,29.72
2018-04-25T01:49:08.905Z,29.63
2018-04-25T01:51:52.510Z,29.53
2018-04-25T01:54:35.577Z,29.44
2018-04-25T01:57:12.067Z,29.40
2018-04-25T01:59:56.217Z,29.36
2018-04-25T02:02:26.562Z,29.27
2018-04-25T02:04:57.123Z,29.23
2018-04-25T02:07:29.395Z,29.17
2018-04-25T02:10:01.436Z,29.08
2018-04-25T02:12:33.575Z,29.01
2018-04-25T02:15:04.494Z,28.96
2018-04-25T02:17:36.472Z,28.90
2018-04-25T02:20:08.424Z,28.85
2018-04-25T02:22:40.278Z,28.78
2018-04-25T02:25:12.267Z,28.73
2018-04-25T02:27:44.351Z,28.72
2018-04-25T02:30:16.489Z,28.63
2018-04-25T02:32:48.482Z,28.56
2018-04-25T02:35:20.578Z,28.53
2018-04-25T02:37:53.521Z,28.50
2018-04-25T02:40:26.707Z,28.42
2018-04-25T02:43:00.540Z,28.30
2018-04-25T02:45:32.490Z,28.24
2018-04-25T02:48:04.542Z,28.18
2018-04-25T02:50:35.482Z,28.10
2018-04-25T02:53:07.480Z,28.02
2018-04-25T02:55:39.488Z,27.95
2018-04-25T02:58:11.383Z,27.87
2018-04-25T03:00:43.310Z,27.82
2018-04-25T03:03:15.281Z,27.80
2018-04-25T03:05:46.074Z,27.79
2018-04-25T03:08:18.543Z,27.72
2018-04-25T03:10:50.311Z,27.63
2018-04-25T03:13:22.590Z,27.59
2018-04-25T03:15:54.533Z,27.55
2018-04-25T03:18:25.473Z,27.52
2018-04-25T03:20:59.012Z,27.49
2018-04-25T03:23:30.700Z,27.45
2018-04-25T03:26:02.989Z,27.41
2018-04-25T03:28:35.477Z,27.38
2018-04-25T03:31:08.236Z,27.35
2018-04-25T03:33:40.579Z,27.31
2018-04-25T03:37:25.442Z,27.45
2018-04-25T03:39:57.549Z,27.70
2018-04-25T03:42:29.432Z,27.90
2018-04-25T03:45:01.475Z,28.06
2018-04-25T03:49:50.727Z,28.27
2018-04-25T03:52:22.694Z,28.34
2018-04-25T03:57:42.776Z,28.38
2018-04-25T04:00:14.395Z,28.96
2018-04-25T04:02:46.689Z,28.86
2018-04-25T04:05:18.688Z,28.75
2018-04-25T04:07:50.774Z,28.71
2018-04-25T04:10:22.699Z,28.70
2018-04-25T04:12:54.770Z,28.71
2018-04-25T04:15:26.635Z,28.69
2018-04-25T04:17:58.747Z,28.68
2018-04-25T04:20:30.728Z,28.67
2018-04-25T04:23:02.650Z,28.68
2018-04-25T04:25:34.720Z,28.69
2018-04-25T04:28:06.706Z,28.69
2018-04-25T04:30:38.662Z,28.71
2018-04-25T04:33:10.708Z,28.71
2018-04-25T04:35:42.724Z,28.73
2018-04-25T04:38:14.645Z,28.73
2018-04-25T04:40:46.715Z,28.74
2018-04-25T04:43:18.825Z,28.75
2018-04-25T04:45:49.309Z,28.76
2018-04-25T04:48:21.526Z,28.76
2018-04-25T04:50:53.515Z,28.77
2018-04-25T04:53:25.716Z,28.80
2018-04-25T04:55:58.815Z,28.84
2018-04-25T05:01:16.797Z,28.81
2018-04-25T05:03:50.350Z,28.88
2018-04-25T05:06:23.821Z,28.92
2018-04-25T05:08:57.309Z,28.92
2018-04-25T05:11:31.205Z,28.91
2018-04-25T05:14:04.698Z,28.91
2018-04-25T05:16:38.033Z,28.91
2018-04-25T05:19:11.468Z,28.92
2018-04-25T05:21:45.675Z,28.92
2018-04-25T05:24:19.216Z,28.93
2018-04-25T05:26:52.279Z,28.93
2018-04-25T05:29:25.586Z,28.93
2018-04-25T05:31:58.992Z,28.93
2018-04-25T05:34:32.489Z,28.93
2018-04-25T05:37:05.432Z,28.93
2018-04-25T05:39:38.495Z,28.93
2018-04-25T05:42:11.765Z,28.93
2018-04-25T05:44:45.581Z,28.94
2018-04-25T05:47:19.244Z,28.94
2018-04-25T05:49:52.594Z,28.94
2018-04-25T05:52:24.875Z,28.94
2018-04-25T05:54:58.277Z,28.94
2018-04-25T05:57:32.483Z,28.93
2018-04-25T06:00:06.225Z,28.92
2018-04-25T06:02:39.585Z,28.91
2018-04-25T06:05:14.036Z,28.91
2018-04-25T06:07:46.572Z,28.93
2018-04-25T06:10:20.120Z,28.92
2018-04-25T06:12:53.540Z,28.93
2018-04-25T06:15:26.478Z,28.92
2018-04-25T06:17:59.590Z,28.93
2018-04-25T06:20:35.263Z,28.92
2018-04-25T06:25:38.729Z,28.93
2018-04-25T06:28:12.824Z,28.96
2018-04-25T06:30:46.595Z,28.96
2018-04-25T06:33:21.224Z,28.97
2018-04-25T06:35:54.659Z,28.97
2018-04-25T06:38:27.982Z,28.97
2018-04-25T06:41:01.245Z,28.97
2018-04-25T06:43:34.598Z,28.97
2018-04-25T06:46:07.909Z,28.97
2018-04-25T06:48:41.537Z,28.97
2018-04-25T06:51:14.717Z,28.97
2018-04-25T06:53:48.668Z,28.97
2018-04-25T06:56:22.510Z,29.01
2018-04-25T06:58:55.899Z,29.04
2018-04-25T07:01:29.140Z,29.04
2018-04-25T07:04:02.744Z,29.05
2018-04-25T07:06:36.943Z,29.04
2018-04-25T07:09:11.129Z,29.04
2018-04-25T07:11:44.791Z,29.04
2018-04-25T07:14:18.487Z,29.05
2018-04-25T07:16:51.801Z,29.05
2018-04-25T07:19:25.743Z,29.05
2018-04-25T07:21:59.276Z,29.06
2018-04-25T07:24:32.814Z,29.05
2018-04-25T07:27:06.682Z,29.05
2018-04-25T07:29:40.009Z,29.05
2018-04-25T07:32:13.785Z,29.05
2018-04-25T07:34:47.829Z,29.03
2018-04-25T07:37:21.860Z,29.04
2018-04-25T07:39:55.303Z,29.04
2018-04-25T07:42:27.782Z,29.03
2018-04-25T07:45:01.638Z,29.02
2018-04-25T07:48:27.532Z,28.99
2018-04-25T07:51:01.421Z,29.00
2018-04-25T07:53:35.542Z,29.00
2018-04-25T07:56:08.871Z,29.00
2018-04-25T07:58:42.734Z,29.00
2018-04-25T08:01:16.325Z,28.98
2018-04-25T08:03:50.620Z,28.96
2018-04-25T08:06:24.185Z,28.95
2018-04-25T08:08:57.600Z,28.95
2018-04-25T08:11:31.097Z,28.93
2018-04-25T08:14:15.535Z,28.93
2018-04-25T08:16:59.803Z,28.93
2018-04-25T08:19:45.461Z,28.92
2018-04-25T08:22:18.555Z,28.90
2018-04-25T08:24:52.735Z,28.88
2018-04-25T08:27:27.538Z,28.88
2018-04-25T08:30:00.556Z,28.87
2018-04-25T08:32:33.919Z,28.87
2018-04-25T08:35:07.449Z,28.87
2018-04-25T08:37:41.748Z,28.85
2018-04-25T08:40:15.950Z,28.86
2018-04-25T08:42:49.957Z,28.85
2018-04-25T08:45:23.747Z,28.84
2018-04-25T08:47:56.569Z,28.84
2018-04-25T08:50:30.175Z,28.82
2018-04-25T08:53:04.535Z,28.83
2018-04-25T08:55:37.974Z,28.81
2018-04-25T08:58:11.533Z,28.81
2018-04-25T09:00:44.537Z,28.80
2018-04-25T09:03:18.113Z,28.80
2018-04-25T09:05:52.873Z,28.80
2018-04-25T09:08:26.639Z,28.80
2018-04-25T09:11:00.234Z,28.79
2018-04-25T09:13:33.652Z,28.78
2018-04-25T09:16:07.992Z,28.77
2018-04-25T09:18:41.343Z,28.77
2018-04-25T09:21:14.668Z,28.76
2018-04-25T09:23:48.215Z,28.75
2018-04-25T09:26:21.628Z,28.75
2018-04-25T09:29:39.318Z,28.71
2018-04-25T09:32:13.815Z,28.73
2018-04-25T09:34:47.418Z,28.72
2018-04-25T09:37:21.013Z,28.72
2018-04-25T09:39:54.759Z,28.72
2018-04-25T09:42:27.694Z,28.71
2018-04-25T09:45:01.818Z,28.70
2018-04-25T09:47:34.688Z,28.71
2018-04-25T09:50:08.694Z,28.71
2018-04-25T09:52:42.762Z,28.71
2018-04-25T09:55:16.351Z,28.69
2018-04-25T09:57:49.746Z,28.67
2018-04-25T10:00:23.765Z,28.68
2018-04-25T10:02:58.992Z,28.67
2018-04-25T10:05:32.942Z,28.66
2018-04-25T10:08:06.789Z,28.65
2018-04-25T10:10:39.578Z,28.65
2018-04-25T10:13:12.541Z,28.64
2018-04-25T10:15:46.909Z,28.64
2018-04-25T10:18:20.595Z,28.64
2018-04-25T10:20:53.702Z,28.63
2018-04-25T10:23:27.573Z,28.62
2018-04-25T10:26:00.565Z,28.62
2018-04-25T10:28:33.897Z,28.60
2018-04-25T10:31:07.577Z,28.60
2018-04-25T10:33:41.344Z,28.60
2018-04-25T10:36:15.961Z,28.59
2018-04-25T10:38:49.174Z,28.59
2018-04-25T10:41:22.577Z,28.59
2018-04-25T10:43:55.189Z,28.58
2018-04-25T10:46:29.575Z,28.57
2018-04-25T10:49:03.167Z,28.57
2018-04-25T10:51:36.581Z,28.56
2018-04-25T10:54:10.587Z,28.56
2018-04-25T10:56:44.987Z,28.54
2018-04-25T10:59:19.390Z,28.53
2018-04-25T11:01:51.951Z,28.54
2018-04-25T11:04:25.510Z,28.53
2018-04-25T11:06:57.628Z,28.53
2018-04-25T11:09:31.439Z,28.52
2018-04-25T11:12:05.317Z,28.52
2018-04-25T11:14:38.730Z,28.51
2018-04-25T11:17:12.265Z,28.52
2018-04-25T11:19:45.353Z,28.50
2018-04-25T11:22:19.165Z,28.49
2018-04-25T11:24:52.597Z,28.49
2018-04-25T11:28:22.617Z,28.46
2018-04-25T11:33:11.821Z,28.48
2018-04-25T11:35:45.828Z,28.47
2018-04-25T11:38:19.469Z,28.46
2018-04-25T11:40:51.638Z,28.46
2018-04-25T11:43:25.298Z,28.45
2018-04-25T11:45:58.125Z,28.45
2018-04-25T11:48:31.188Z,28.45
2018-04-25T11:51:03.770Z,28.44
2018-04-25T11:53:37.624Z,28.42
2018-04-25T11:56:10.696Z,28.41
2018-04-25T12:01:25.518Z,28.33
2018-04-25T12:03:57.923Z,28.37
2018-04-25T12:06:31.149Z,28.38
2018-04-25T12:09:03.703Z,28.39
2018-04-25T12:11:37.718Z,28.38
2018-04-25T12:14:10.744Z,28.39
2018-04-25T12:16:44.942Z,28.39
2018-04-25T12:19:18.800Z,28.40
2018-04-25T12:21:52.962Z,28.39
2018-04-25T12:24:25.751Z,28.38
2018-04-25T12:26:59.380Z,28.37
2018-04-25T12:29:33.374Z,28.36
2018-04-25T12:32:07.873Z,28.36
2018-04-25T12:34:42.020Z,28.33
2018-04-25T12:37:16.230Z,28.32
2018-04-25T12:39:50.047Z,28.33
2018-04-25T12:42:24.065Z,28.33
2018-04-25T12:44:57.740Z,28.32
2018-04-25T12:47:32.107Z,28.30
2018-04-25T12:50:05.040Z,28.31
2018-04-25T12:52:38.626Z,28.30
2018-04-25T12:55:12.803Z,28.28
2018-04-25T12:57:46.055Z,28.28
2018-04-25T13:00:19.874Z,28.27
2018-04-25T13:02:54.805Z,28.25
2018-04-25T13:05:27.735Z,28.26
2018-04-25T13:08:01.708Z,28.24
2018-04-25T13:10:34.737Z,28.26
2018-04-25T13:13:09.147Z,28.26
2018-04-25T13:15:42.828Z,28.25
2018-04-25T13:18:18.308Z,28.24
2018-04-25T15:47:43.249Z,25.11
2018-04-25T15:50:16.219Z,25.52
2018-04-25T15:52:49.230Z,25.95
2018-04-25T15:55:22.208Z,26.30
2018-04-25T15:57:55.367Z,26.58
2018-04-25T16:00:28.073Z,26.78
2018-04-25T16:03:01.192Z,26.94
2018-04-25T16:05:35.831Z,27.08
2018-04-25T16:08:07.812Z,27.18
2018-04-25T16:10:41.182Z,27.26
2018-04-25T16:13:13.390Z,27.34
2018-04-25T16:15:46.083Z,27.39
2018-04-25T16:18:19.261Z,27.46
2018-04-25T16:20:50.960Z,27.51
2018-04-25T16:23:22.662Z,27.54
2018-04-25T16:25:54.347Z,27.58
2018-04-25T16:28:26.153Z,27.61
2018-04-25T16:30:57.680Z,27.64
2018-04-25T16:33:29.802Z,27.65
2018-04-25T16:36:01.713Z,27.67
2018-04-25T16:38:33.682Z,27.69
2018-04-25T16:41:05.691Z,27.70
2018-04-25T16:43:37.698Z,27.70
2018-04-25T16:46:09.269Z,27.70
2018-04-25T16:50:18.102Z,27.71
2018-04-25T16:52:48.583Z,27.73
2018-04-25T16:55:20.270Z,27.74
2018-04-25T16:57:52.103Z,27.73
2018-04-25T17:00:23.728Z,27.75
2018-04-25T17:02:55.837Z,27.75
2018-04-25T17:05:27.792Z,27.74
2018-04-25T17:08:00.880Z,27.76
2018-04-25T17:10:32.559Z,27.74
2018-04-25T17:13:04.228Z,27.75
2018-04-25T17:15:35.999Z,27.75
2018-04-25T17:18:07.736Z,27.76
2018-04-25T17:20:39.702Z,27.76
2018-04-25T17:23:11.687Z,27.77
2018-04-25T17:25:43.329Z,27.77
2018-04-25T17:28:15.006Z,27.77
2018-04-25T17:30:46.721Z,27.78
2018-04-25T17:33:18.737Z,27.79
2018-04-25T17:35:50.849Z,27.80
2018-04-25T17:38:22.682Z,27.80
2018-04-25T17:40:54.524Z,27.81
2018-04-25T17:43:26.138Z,27.82
2018-04-25T17:45:57.709Z,27.82
2018-04-25T17:48:29.702Z,27.83
2018-04-25T17:51:01.713Z,27.82
2018-04-25T17:53:33.711Z,27.83
2018-04-25T17:56:05.711Z,27.83
2018-04-25T17:58:37.709Z,27.84
2018-04-25T18:01:09.260Z,27.85
2018-04-25T18:03:41.126Z,27.84
2018-04-25T18:06:11.620Z,27.85
2018-04-25T18:08:43.292Z,27.86
2018-04-25T18:11:15.023Z,27.86
2018-04-25T18:13:46.724Z,27.85
2018-04-25T18:16:18.721Z,27.85
2018-04-25T18:18:50.702Z,27.86
2018-04-25T18:21:22.862Z,27.87
2018-04-25T18:23:54.838Z,27.87
2018-04-25T18:26:26.723Z,27.87
2018-04-25T18:28:58.752Z,27.87
2018-04-25T18:31:30.744Z,27.87
2018-04-25T18:34:02.757Z,27.87
2018-04-25T18:36:34.716Z,27.87
2018-04-25T18:39:07.022Z,27.89
2018-04-25T18:41:38.736Z,27.91
2018-04-25T18:44:10.714Z,27.93
2018-04-25T18:46:42.750Z,27.93
2018-04-25T18:49:14.741Z,27.95
2018-04-25T18:51:46.843Z,27.95
2018-04-25T18:54:18.828Z,27.96
2018-04-25T18:56:50.747Z,27.98
2018-04-25T18:59:23.717Z,28.00
2018-04-25T19:01:55.234Z,28.01
2018-04-25T19:04:27.027Z,28.02
2018-04-25T19:06:58.752Z,28.03
2018-04-25T19:09:32.385Z,28.04
2018-04-25T19:12:04.125Z,28.06
2018-04-25T19:14:36.472Z,28.06
2018-04-25T19:17:08.130Z,28.06
2018-04-25T19:19:39.099Z,28.08
2018-04-25T19:22:10.868Z,28.11
2018-04-25T19:24:42.720Z,28.16
2018-04-25T19:27:14.533Z,28.18
2018-04-25T19:29:46.150Z,28.22
2018-04-25T19:32:16.715Z,28.25
2018-04-25T19:34:48.747Z,28.26
2018-04-25T19:37:20.731Z,28.28
2018-04-25T19:39:52.758Z,28.29
2018-04-25T19:42:25.276Z,28.23
2018-04-25T19:44:58.431Z,28.13
2018-04-25T19:48:55.263Z,28.13
2018-04-25T19:51:28.231Z,28.14
2018-04-25T19:56:06.330Z,28.20
2018-04-25T19:58:39.318Z,28.22
2018-04-25T20:02:10.105Z,28.21
2018-04-25T20:04:40.656Z,28.28
2018-04-25T20:07:12.329Z,28.39
2018-04-25T20:09:44.054Z,28.44
2018-04-25T20:12:15.891Z,28.44
2018-04-25T20:14:48.667Z,28.44
2018-04-25T20:17:21.720Z,28.46
2018-04-25T20:19:53.342Z,28.47
2018-04-25T20:22:25.023Z,28.48
2018-04-25T20:24:56.880Z,28.49
2018-04-25T20:28:53.575Z,28.50
2018-04-25T20:31:25.296Z,28.52
2018-04-25T20:33:57.185Z,28.51
2018-04-25T20:36:27.680Z,28.51
2018-04-25T20:38:59.557Z,28.52
2018-04-25T20:41:31.343Z,28.52
2018-04-25T20:44:03.181Z,28.53
2018-04-25T20:46:34.790Z,28.54
2018-04-25T20:49:06.898Z,28.54
2018-04-25T20:51:38.894Z,28.53
2018-04-25T20:54:10.901Z,28.53
2018-04-25T20:56:42.788Z,28.53
2018-04-25T20:59:14.890Z,28.53
2018-04-25T21:01:46.923Z,28.53
2018-04-25T21:04:18.912Z,28.53
2018-04-25T21:06:50.899Z,28.53
2018-04-25T21:09:22.914Z,28.52
2018-04-25T21:11:54.880Z,28.52
2018-04-25T21:14:26.797Z,28.52
2018-04-25T21:16:58.801Z,28.53
2018-04-25T21:19:30.877Z,28.53
2018-04-25T21:22:02.820Z,28.54
2018-04-25T21:24:34.788Z,28.54
2018-04-25T21:27:06.796Z,28.54
2018-04-25T21:29:38.820Z,28.54
2018-04-25T21:32:11.082Z,28.54
2018-04-25T21:34:42.770Z,28.55
2018-04-25T21:37:16.298Z,28.56
2018-04-25T21:39:49.430Z,28.57
2018-04-25T21:42:21.172Z,28.57
2018-04-25T21:44:52.764Z,28.57
2018-04-25T21:47:24.386Z,28.58
2018-04-25T21:49:56.276Z,28.58
2018-04-25T21:52:28.068Z,28.58
2018-04-25T21:54:59.905Z,28.58
2018-04-25T21:57:31.762Z,28.59
2018-04-25T22:00:04.078Z,28.59
2018-04-25T22:02:35.788Z,28.60
2018-04-25T22:05:07.817Z,28.61
2018-04-25T22:07:39.817Z,28.62
2018-04-25T22:10:11.891Z,28.62
2018-04-25T22:12:43.936Z,28.62
2018-04-25T22:16:55.186Z,28.62
2018-04-25T22:21:35.189Z,28.66
2018-04-25T22:24:05.719Z,28.65
2018-04-25T22:26:37.407Z,28.64
2018-04-25T22:29:09.177Z,28.64
2018-04-25T22:31:39.722Z,28.64
2018-04-25T22:34:11.370Z,28.65
2018-04-25T22:36:43.182Z,28.65
2018-04-25T22:39:13.695Z,28.65
2018-04-25T22:41:45.329Z,28.66
2018-04-25T22:44:16.981Z,28.65
2018-04-25T22:46:48.782Z,28.66
2018-04-25T22:49:20.488Z,28.66
2018-04-25T22:51:53.098Z,28.66
2018-04-25T22:54:24.782Z,28.66
2018-04-25T22:56:56.810Z,28.66
2018-04-25T22:59:28.801Z,28.65
2018-04-25T23:02:02.339Z,28.66
2018-04-25T23:04:33.962Z,28.66
2018-04-25T23:07:05.798Z,28.66
2018-04-25T23:09:37.793Z,28.66
2018-04-25T23:12:10.845Z,28.66
2018-04-25T23:14:42.930Z,28.67
2018-04-25T23:17:14.883Z,28.67
2018-04-25T23:19:46.983Z,28.68
2018-04-25T23:22:18.939Z,28.69
2018-04-25T23:24:50.863Z,28.70
2018-04-25T23:27:23.834Z,28.71
2018-04-25T23:30:30.849Z,28.68
2018-04-25T23:33:02.821Z,28.71
2018-04-25T23:35:34.844Z,28.72
2018-04-25T23:38:06.832Z,28.72
2018-04-25T23:40:38.815Z,28.72
2018-04-25T23:43:10.618Z,28.72
2018-04-25T23:45:42.416Z,28.73
2018-04-25T23:48:14.247Z,28.73
2018-04-25T23:50:47.234Z,28.74
2018-04-25T23:53:17.891Z,28.73
2018-04-25T23:55:49.935Z,28.73
2018-04-25T23:58:21.851Z,28.73
